Terminal Aerodrome Forecast
Issued by NWS

Home | Current Version | Previous Version | Text Only | Print | Product List | Glossary On
Versions: 1 2 3 4 5 6 7 8 9 10 11 12 13 14 15 16 17 18 19 20 21 22 23 24 25 26 27 28 29 30 31 32 33 34 35 36 37 38
000
FTAK31 PANC 021139
TAFAIL
TAF
PAIL 021139Z 0212/0312 12008KT P6SM OVC150
     FM021600 09012G22KT P6SM SCT050 OVC080
      TEMPO 0300/0304 09020G32KT P6SM -SHRA SCT035 OVC050
     FM030400 09015G25KT 6SM -SHRA OVC035=

USA.gov is the U.S. government's official web portal to all federal, state and local government web resources and services.